RJBK weather

Kohnan Airport
Okayama Prefecture, Japan

Public forecast

Using degrees Celsius for public forecast. Weather courtesy of forecast.io.

Closest aviation weather report (METAR) to Kohnan Airport

Closest report is Okayama Airport, 10.7 nm (19.8 km) NNW. Retrieved 2019/11/16 00:00 UTC (26 minutes ago):

RJOB 160000Z 25008KT 9999 FEW025 11/03 Q1019

Closest aviation forecast (TAF) to Kohnan Airport

Closest forecast is Okayama Airport, 10.7 nm (19.8 km) NNW. Retrieved 2019-11-16 00:30 UTC (0 seconds ago):

TAF RJOB 152310Z 1600/1706 24006KT 9999 FEW025 BECMG 1621/1700 06004KT